Newfolden, MN

9:05 AM CDT on April 26, 2015 (GMT -0500)
Erickson Family Farms | | Change Station
CLOSE
Current Station
Personal Weather Station
Location: Middle River, MN
Elevation: 1142 ft
Nearby Weather Stations

Elev 1142 ft 48.34 °N, 96.09 °W | Updated 22 seconds ago

Clear
Clear
50.5 °F
Feels Like 50.5 °F
N
5.1
Wind Variable Wind from SE
Gusts 7.4 mph

Today
High -- | Low -- °F
--% Chance of Precip.
Yesterday
High -- | Low -- °F
Precip. -- in
6:14 AM 8:31 PM
First Quarter, 56% visible
Pressure 30.14 in
Visibility 10.0 miles
Clouds Clear
Dew Point 18 °F
Humidity 27%
Rainfall 0.00 in
Snow Depth Not available.
UV 2.0 out of 12
Pollen 10.70 out of 12
Air Quality Not available.
Flu Activity Local Activity
METAR KTVF 261355Z AUTO 17007KT 10SM CLR 08/M07 A3014 RMK AO1

More Conditions Fewer Conditions

Pressure 30.14 in
Visibility 10.0 miles
Clouds Clear
Dew Point 18 °F
Humidity 27%
Rainfall 0.00 in
Snow Depth Not available.
UV 2.0 out of 12
Pollen 10.70 out of 12
Air Quality Not available.
Flu Activity Local Activity
METAR KTVF 261355Z AUTO 17007KT 10SM CLR 08/M07 A3014 RMK AO1

More Conditions Fewer Conditions

The full scope of the disaster following a powerful 7.8-magnitude earthquake in Nepal may not come into view for days, but global charities are already sending emergency aid. Click to see how you can help.

10-Day Weather Forecast

Almanac

Astronomy

Apr. 26, 2015 Rise Set
Actual Time
Civil Twilight
Nautical Twilight
Astronomical Twilight
Moon
Length of Visible Light
Length of Day
Tomorrow will be .
, % of the Moon is Illuminated

Today's Extremes

State Highs State Lows

Community

WunderPhotos

Upload Photos

1,817,007 photos uploaded!

WunderBlogs® & News

Nearby

Air Quality

  Air Quality AQ Index Pollutant
Not available.

Snow Depth

Station Depth Elevation

Earthquake Activity

City Distance Mag. Time & Date
Minimum magnitude displayed is 2.5.

Coastal Water Temperatures

Place Temperature

Stations

Nearby Weather Stations

Station Location Temp. Windchill Dew Point Humidity Wind Precip. Elev Updated Type